createdAt,value
2023-02-05T00:00:17.250Z,94.5
2023-02-05T00:01:16.715Z,94.5
2023-02-05T00:02:17.285Z,94.5
2023-02-05T00:03:16.892Z,94.4
2023-02-05T00:04:17.425Z,94.4
2023-02-05T00:05:16.916Z,94.4
2023-02-05T00:06:17.405Z,94.4
2023-02-05T00:07:16.904Z,94.4
2023-02-05T00:08:17.392Z,94.5
2023-02-05T00:09:16.906Z,94.5
2023-02-05T00:10:17.419Z,94.5
2023-02-05T00:11:16.911Z,94.6
2023-02-05T00:12:17.431Z,94.7
2023-02-05T00:13:16.904Z,94.8
2023-02-05T00:14:17.452Z,94.8
2023-02-05T00:15:16.980Z,94.8
2023-02-05T00:16:16.613Z,94.7
2023-02-05T00:17:17.118Z,94.7
2023-02-05T00:18:16.604Z,94.7
2023-02-05T00:19:17.130Z,94.7
2023-02-05T00:20:16.635Z,94.6
2023-02-05T00:21:17.130Z,94.5
2023-02-05T00:22:16.564Z,94.5
2023-02-05T00:23:17.090Z,94.5
2023-02-05T00:24:16.586Z,94.4
2023-02-05T00:25:17.105Z,94.5
2023-02-05T00:26:16.617Z,94.4
2023-02-05T00:27:17.115Z,94.4
2023-02-05T00:28:16.696Z,94.4
2023-02-05T00:29:17.217Z,94.4
2023-02-05T00:30:16.752Z,94.4
2023-02-05T00:31:17.583Z,94.4
2023-02-05T00:32:16.757Z,94.4
2023-02-05T00:33:17.245Z,94.3
2023-02-05T00:34:16.790Z,94.4
2023-02-05T00:35:17.308Z,94.4
2023-02-05T00:36:16.842Z,94.3
2023-02-05T00:37:17.371Z,94.4
2023-02-05T00:38:16.874Z,94.4
2023-02-05T00:39:17.425Z,94.4
2023-02-05T00:40:16.924Z,94.4
2023-02-05T00:41:17.420Z,94.4
2023-02-05T00:42:16.814Z,94.5
2023-02-05T00:43:17.346Z,94.5
2023-02-05T00:44:16.844Z,94.5
2023-02-05T00:45:17.348Z,94.6
2023-02-05T00:46:16.902Z,94.7
2023-02-05T00:47:17.418Z,94.7
2023-02-05T00:48:16.905Z,94.8
2023-02-05T00:49:17.426Z,94.8
2023-02-05T00:50:16.938Z,94.8
2023-02-05T00:51:17.436Z,95.0
2023-02-05T00:52:16.821Z,95.1
2023-02-05T00:53:17.329Z,95.1
2023-02-05T00:54:16.866Z,95.2
2023-02-05T00:55:17.362Z,95.1
2023-02-05T00:56:16.948Z,95.1
2023-02-05T00:57:16.549Z,95.2
2023-02-05T00:58:17.047Z,95.2
2023-02-05T00:59:16.577Z,95.1
2023-02-05T01:00:17.104Z,95.1
2023-02-05T01:01:16.714Z,95.2
2023-02-05T01:02:17.139Z,95.1
2023-02-05T01:03:16.643Z,95.1
2023-02-05T01:04:17.148Z,95.0
2023-02-05T01:05:16.674Z,95.0
2023-02-05T01:06:17.179Z,95.0
2023-02-05T01:07:16.650Z,95.0
2023-02-05T01:08:17.165Z,95.0
2023-02-05T01:09:16.670Z,94.9
2023-02-05T01:10:17.156Z,94.9
2023-02-05T01:11:16.689Z,94.8
2023-02-05T01:12:17.212Z,94.8
2023-02-05T01:13:18.403Z,94.7
2023-02-05T01:14:16.920Z,94.8
2023-02-05T01:15:17.437Z,94.8
2023-02-05T01:16:17.262Z,94.7
2023-02-05T01:17:16.820Z,94.8
2023-02-05T01:18:17.303Z,94.8
2023-02-05T01:19:16.824Z,94.8
2023-02-05T01:20:17.326Z,94.8
2023-02-05T01:21:16.813Z,94.8
2023-02-05T01:22:16.563Z,94.7
2023-02-05T01:23:17.061Z,94.8
2023-02-05T01:24:16.580Z,94.9
2023-02-05T01:25:17.107Z,94.9
2023-02-05T01:26:16.646Z,95.0
2023-02-05T01:27:17.160Z,95.0
2023-02-05T01:28:17.015Z,95.1
2023-02-05T01:29:16.551Z,95.0
2023-02-05T01:30:17.063Z,95.0
2023-02-05T01:31:16.814Z,94.9
2023-02-05T01:32:17.182Z,94.9
2023-02-05T01:33:16.665Z,94.8
2023-02-05T01:34:17.143Z,94.8
2023-02-05T01:35:16.631Z,94.8
2023-02-05T01:36:17.130Z,94.8
2023-02-05T01:37:16.662Z,94.8
2023-02-05T01:38:17.176Z,94.7
2023-02-05T01:39:16.671Z,94.7
2023-02-05T01:40:17.200Z,94.7
2023-02-05T01:41:16.684Z,94.7
2023-02-05T01:42:16.486Z,94.9
2023-02-05T01:43:17.019Z,95.1
2023-02-05T01:44:16.522Z,95.0
2023-02-05T01:45:17.005Z,95.0
2023-02-05T01:46:16.586Z,94.9
2023-02-05T01:47:17.086Z,94.9
2023-02-05T01:48:16.549Z,94.9
2023-02-05T01:49:17.029Z,94.9
2023-02-05T01:50:16.522Z,94.9
2023-02-05T01:51:17.056Z,94.9
2023-02-05T01:52:16.543Z,95.0
2023-02-05T01:53:17.041Z,95.0
2023-02-05T01:54:16.551Z,95.0
2023-02-05T01:55:17.055Z,95.0
2023-02-05T01:56:16.581Z,94.9
2023-02-05T01:57:17.144Z,95.0
2023-02-05T01:58:16.654Z,95.0
2023-02-05T01:59:17.160Z,95.1
2023-02-05T02:00:16.640Z,95.1
2023-02-05T02:01:17.300Z,95.1
2023-02-05T02:02:16.908Z,95.2
2023-02-05T02:03:17.430Z,95.3
2023-02-05T02:04:16.907Z,95.3
2023-02-05T02:05:17.689Z,95.1
2023-02-05T02:06:17.366Z,95.1
2023-02-05T02:07:16.856Z,95.0
2023-02-05T02:08:17.353Z,95.0
2023-02-05T02:09:16.890Z,95.0
2023-02-05T02:10:17.416Z,95.2
2023-02-05T02:11:16.894Z,95.2
2023-02-05T02:12:17.061Z,95.1
2023-02-05T02:13:16.561Z,95.0
2023-02-05T02:14:17.032Z,94.8
2023-02-05T02:15:16.551Z,94.8
2023-02-05T02:16:17.143Z,94.8
2023-02-05T02:17:16.682Z,94.7
2023-02-05T02:18:17.180Z,94.7
2023-02-05T02:19:16.673Z,94.8
2023-02-05T02:20:17.188Z,94.8
2023-02-05T02:21:16.702Z,94.7
2023-02-05T02:22:17.214Z,94.7
2023-02-05T02:23:16.685Z,94.7
2023-02-05T02:24:17.188Z,94.7
2023-02-05T02:25:16.694Z,94.7
2023-02-05T02:26:17.173Z,94.8
2023-02-05T02:27:16.723Z,94.8
2023-02-05T02:28:17.388Z,94.8
2023-02-05T02:29:16.911Z,94.8
2023-02-05T02:30:17.511Z,94.8
2023-02-05T02:31:17.096Z,94.7
2023-02-05T02:32:16.961Z,94.6
2023-02-05T02:33:17.472Z,94.7
2023-02-05T02:34:16.956Z,94.7
2023-02-05T02:35:17.459Z,94.7
2023-02-05T02:36:16.937Z,94.7
2023-02-05T02:37:17.455Z,94.7
2023-02-05T02:38:16.955Z,94.7
2023-02-05T02:39:17.470Z,94.8
2023-02-05T02:40:16.953Z,95.0
2023-02-05T02:41:17.441Z,95.1
2023-02-05T02:42:16.887Z,95.1
2023-02-05T02:43:17.397Z,95.0
2023-02-05T02:44:16.896Z,95.1
2023-02-05T02:45:17.383Z,95.2
2023-02-05T02:46:16.957Z,95.3
2023-02-05T02:47:16.477Z,95.3
2023-02-05T02:48:16.982Z,95.2
2023-02-05T02:49:16.464Z,95.2
2023-02-05T02:50:16.946Z,95.0
2023-02-05T02:51:17.424Z,95.0
2023-02-05T02:52:16.525Z,94.9
2023-02-05T02:53:17.041Z,94.9
2023-02-05T02:54:16.535Z,94.9
2023-02-05T02:55:17.036Z,94.8
2023-02-05T02:56:16.560Z,94.8
2023-02-05T02:57:17.052Z,94.8
2023-02-05T02:58:16.560Z,94.7
2023-02-05T02:59:17.065Z,94.7
2023-02-05T03:00:16.570Z,94.8
2023-02-05T03:01:17.062Z,94.8
2023-02-05T03:02:16.782Z,94.9
2023-02-05T03:03:17.276Z,94.9
2023-02-05T03:04:16.769Z,94.9
2023-02-05T03:05:17.452Z,94.8
2023-02-05T03:06:17.084Z,94.8
2023-02-05T03:07:16.573Z,94.8
2023-02-05T03:08:17.066Z,94.8
2023-02-05T03:09:16.563Z,94.8
2023-02-05T03:10:17.042Z,94.8
2023-02-05T03:11:16.566Z,94.7
2023-02-05T03:12:17.498Z,94.7
2023-02-05T03:13:17.001Z,94.7
2023-02-05T03:14:16.495Z,94.7
2023-02-05T03:15:17.016Z,94.7
2023-02-05T03:16:16.598Z,94.7
2023-02-05T03:17:17.123Z,94.7
2023-02-05T03:18:16.617Z,94.7
2023-02-05T03:19:17.089Z,94.7
2023-02-05T03:20:16.566Z,94.6
2023-02-05T03:21:17.099Z,94.6
2023-02-05T03:22:16.730Z,94.6
2023-02-05T03:23:17.240Z,94.6
2023-02-05T03:24:16.732Z,94.5
2023-02-05T03:25:17.226Z,94.5
2023-02-05T03:26:16.719Z,94.5
2023-02-05T03:27:17.214Z,94.5
2023-02-05T03:28:16.775Z,94.4
2023-02-05T03:29:17.310Z,94.5
2023-02-05T03:30:16.807Z,94.4
2023-02-05T03:31:17.370Z,94.5
2023-02-05T03:32:17.318Z,94.5
2023-02-05T03:33:16.801Z,94.5
2023-02-05T03:34:17.297Z,94.5
2023-02-05T03:35:16.797Z,94.5
2023-02-05T03:36:17.310Z,94.5
2023-02-05T03:37:16.820Z,94.4
2023-02-05T03:38:17.354Z,94.4
2023-02-05T03:39:16.834Z,94.4
2023-02-05T03:40:17.338Z,94.4
2023-02-05T03:41:16.881Z,94.4
2023-02-05T03:42:17.467Z,94.4
2023-02-05T03:43:16.954Z,94.4
2023-02-05T03:44:17.475Z,94.4
2023-02-05T03:45:16.955Z,94.4
2023-02-05T03:46:17.434Z,94.4
2023-02-05T03:47:16.923Z,94.4
2023-02-05T03:48:17.415Z,94.4
2023-02-05T03:49:16.916Z,94.5
2023-02-05T03:50:17.464Z,94.5
2023-02-05T03:51:17.021Z,94.5
2023-02-05T03:52:17.485Z,94.5
2023-02-05T03:53:16.989Z,94.5
2023-02-05T03:54:16.475Z,94.5
2023-02-05T03:55:16.971Z,94.6
2023-02-05T03:56:16.498Z,94.6
2023-02-05T03:57:16.976Z,94.6
2023-02-05T03:58:16.467Z,94.6
2023-02-05T03:59:16.976Z,94.6
2023-02-05T04:00:16.515Z,94.7
2023-02-05T04:01:17.114Z,94.7
2023-02-05T04:02:16.754Z,94.7
2023-02-05T04:03:17.263Z,94.6
2023-02-05T04:04:16.743Z,94.6
2023-02-05T04:05:17.223Z,94.5
2023-02-05T04:06:16.761Z,94.6
2023-02-05T04:07:17.276Z,94.5
2023-02-05T04:08:16.785Z,94.5
2023-02-05T04:09:17.306Z,94.6
2023-02-05T04:10:16.784Z,94.6
2023-02-05T04:11:17.283Z,94.6
2023-02-05T04:12:17.122Z,94.6
2023-02-05T04:13:16.612Z,94.4
2023-02-05T04:14:17.128Z,94.4
2023-02-05T04:15:16.615Z,94.5
2023-02-05T04:16:17.193Z,94.5
2023-02-05T04:17:16.679Z,94.5
2023-02-05T04:18:17.187Z,94.6
2023-02-05T04:19:16.684Z,94.5
2023-02-05T04:20:17.181Z,94.4
2023-02-05T04:21:16.714Z,94.4
2023-02-05T04:22:17.080Z,94.5
2023-02-05T04:23:16.568Z,94.5
2023-02-05T04:24:17.101Z,94.5
2023-02-05T04:25:16.613Z,94.5
2023-02-05T04:26:17.121Z,94.4
2023-02-05T04:27:16.639Z,94.4
2023-02-05T04:28:17.278Z,94.3
2023-02-05T04:29:16.773Z,94.2
2023-02-05T04:30:17.266Z,94.3
2023-02-05T04:31:16.849Z,94.4
2023-02-05T04:32:17.146Z,94.3
2023-02-05T04:33:16.667Z,94.3
2023-02-05T04:34:17.170Z,94.4
2023-02-05T04:35:16.690Z,94.4
2023-02-05T04:36:17.196Z,94.4
2023-02-05T04:37:16.687Z,94.4
2023-02-05T04:38:17.187Z,94.5
2023-02-05T04:39:16.673Z,94.5
2023-02-05T04:40:17.170Z,94.5
2023-02-05T04:41:16.674Z,94.6
2023-02-05T04:42:17.182Z,94.6
2023-02-05T04:43:16.656Z,94.6
2023-02-05T04:44:17.189Z,94.5
2023-02-05T04:45:16.691Z,94.5
2023-02-05T04:46:17.275Z,94.5
2023-02-05T04:47:16.819Z,94.4
2023-02-05T04:48:17.304Z,94.4
2023-02-05T04:49:16.801Z,94.4
2023-02-05T04:50:17.281Z,94.3
2023-02-05T04:51:16.793Z,94.3
2023-02-05T04:52:17.136Z,94.2
2023-02-05T04:53:16.646Z,94.3
2023-02-05T04:54:17.197Z,94.2
2023-02-05T04:55:16.716Z,94.3
2023-02-05T04:56:17.255Z,94.3
2023-02-05T04:57:16.760Z,94.2
2023-02-05T04:58:17.246Z,94.2
2023-02-05T04:59:16.740Z,94.2
2023-02-05T05:00:17.235Z,94.2
2023-02-05T05:01:16.930Z,94.1
2023-02-05T05:02:17.106Z,94.1
2023-02-05T05:03:16.633Z,94.1
2023-02-05T05:04:17.119Z,94.2
2023-02-05T05:05:16.600Z,94.1
2023-02-05T05:06:17.106Z,94.1
2023-02-05T05:07:16.591Z,94.2
2023-02-05T05:08:17.073Z,94.1
2023-02-05T05:09:16.540Z,94.1
2023-02-05T05:10:17.076Z,94.1
2023-02-05T05:11:16.576Z,94.1
2023-02-05T05:12:17.008Z,94.2
2023-02-05T05:13:16.508Z,94.2
2023-02-05T05:14:17.015Z,94.2
2023-02-05T05:15:16.527Z,94.2
2023-02-05T05:16:17.156Z,94.3
2023-02-05T05:17:16.641Z,94.2
2023-02-05T05:18:17.126Z,94.3
2023-02-05T05:19:16.653Z,94.3
2023-02-05T05:20:17.160Z,94.3
2023-02-05T05:21:16.673Z,94.2
2023-02-05T05:22:17.219Z,94.2
2023-02-05T05:23:16.696Z,94.3
2023-02-05T05:24:17.212Z,94.3
2023-02-05T05:25:16.695Z,94.2
2023-02-05T05:26:17.237Z,94.2
2023-02-05T05:27:16.804Z,94.2
2023-02-05T05:28:17.363Z,94.3
2023-02-05T05:29:16.891Z,94.3
2023-02-05T05:30:17.400Z,94.3
2023-02-05T05:31:17.255Z,94.4
2023-02-05T05:32:17.646Z,94.3
2023-02-05T05:33:17.218Z,94.4
2023-02-05T05:34:16.727Z,94.4
2023-02-05T05:35:17.214Z,94.4
2023-02-05T05:36:16.825Z,94.5
2023-02-05T05:37:17.341Z,94.4
2023-02-05T05:38:16.875Z,94.4
2023-02-05T05:39:17.382Z,94.5
2023-02-05T05:40:16.891Z,94.5
2023-02-05T05:41:17.419Z,94.5
2023-02-05T05:42:16.986Z,94.5
2023-02-05T05:43:16.472Z,94.5
2023-02-05T05:44:16.967Z,94.5
2023-02-05T05:45:16.510Z,94.4
2023-02-05T05:46:17.102Z,94.4
2023-02-05T05:47:16.604Z,94.4
2023-02-05T05:48:17.132Z,94.5
2023-02-05T05:49:16.609Z,94.5
2023-02-05T05:50:17.106Z,94.5
2023-02-05T05:51:16.619Z,94.5
2023-02-05T05:52:16.994Z,94.5
2023-02-05T05:53:16.478Z,94.5
2023-02-05T05:54:17.012Z,94.5
2023-02-05T05:55:16.521Z,94.5
2023-02-05T05:56:17.028Z,94.6
2023-02-05T05:57:16.591Z,94.5
2023-02-05T05:58:17.081Z,94.5
2023-02-05T05:59:16.576Z,94.6
2023-02-05T06:00:17.054Z,94.6
2023-02-05T06:01:16.521Z,94.6
2023-02-05T06:02:17.314Z,94.6
2023-02-05T06:03:16.863Z,94.6
2023-02-05T06:04:17.517Z,94.6
2023-02-05T06:05:17.029Z,94.6
2023-02-05T06:06:16.540Z,94.6
2023-02-05T06:07:17.031Z,94.6
2023-02-05T06:08:16.542Z,94.6
2023-02-05T06:09:17.056Z,94.6
2023-02-05T06:10:16.560Z,94.6
2023-02-05T06:11:17.062Z,94.5
2023-02-05T06:12:16.772Z,94.6
2023-02-05T06:13:17.238Z,94.7
2023-02-05T06:14:16.783Z,94.6
2023-02-05T06:15:17.278Z,94.6
2023-02-05T06:16:16.928Z,94.6
2023-02-05T06:17:16.500Z,94.6
2023-02-05T06:18:17.051Z,94.5
2023-02-05T06:19:16.579Z,94.6
2023-02-05T06:20:17.071Z,94.6
2023-02-05T06:21:16.545Z,94.6
2023-02-05T06:22:17.241Z,94.5
2023-02-05T06:23:16.735Z,94.5
2023-02-05T06:24:17.256Z,94.5
2023-02-05T06:25:16.780Z,94.4
2023-02-05T06:26:17.255Z,94.3
2023-02-05T06:27:16.772Z,94.3
2023-02-05T06:28:17.496Z,94.3
2023-02-05T06:29:17.011Z,94.3
2023-02-05T06:30:16.516Z,94.3
2023-02-05T06:31:17.219Z,94.4
2023-02-05T06:32:16.590Z,94.4
2023-02-05T06:33:17.109Z,94.5
2023-02-05T06:34:16.612Z,94.5
2023-02-05T06:35:17.113Z,94.6
2023-02-05T06:36:16.617Z,94.5
2023-02-05T06:37:17.108Z,94.5
2023-02-05T06:38:16.596Z,94.5
2023-02-05T06:39:17.088Z,94.5
2023-02-05T06:40:16.567Z,94.5
2023-02-05T06:41:17.035Z,94.5
2023-02-05T06:42:16.726Z,94.5
2023-02-05T06:43:17.211Z,94.4
2023-02-05T06:44:16.732Z,94.4
2023-02-05T06:45:17.238Z,94.4
2023-02-05T06:46:16.850Z,94.4
2023-02-05T06:47:17.362Z,94.3
2023-02-05T06:48:16.883Z,94.3
2023-02-05T06:49:17.437Z,94.3
2023-02-05T06:50:16.995Z,94.3
2023-02-05T06:51:16.471Z,94.3
2023-02-05T06:52:16.476Z,94.3
2023-02-05T06:53:16.986Z,94.3
2023-02-05T06:54:16.458Z,94.4
2023-02-05T06:55:16.949Z,94.3
2023-02-05T06:56:17.427Z,94.2
2023-02-05T06:57:16.901Z,94.3
2023-02-05T06:58:17.401Z,94.2
2023-02-05T06:59:16.883Z,93.9
2023-02-05T07:00:17.390Z,93.7
2023-02-05T07:01:16.869Z,93.7
2023-02-05T07:02:16.470Z,93.6
2023-02-05T07:03:16.983Z,93.6
2023-02-05T07:04:16.493Z,93.6
2023-02-05T07:05:17.004Z,93.6
2023-02-05T07:06:16.512Z,93.5
2023-02-05T07:07:17.072Z,93.4
2023-02-05T07:08:16.629Z,93.4
2023-02-05T07:09:17.128Z,93.5
2023-02-05T07:10:16.646Z,93.5
2023-02-05T07:11:17.284Z,93.5
2023-02-05T07:12:16.518Z,93.5
2023-02-05T07:13:17.000Z,93.5
2023-02-05T07:14:16.503Z,93.5
2023-02-05T07:15:17.004Z,93.4
2023-02-05T07:16:16.589Z,93.4
2023-02-05T07:17:17.064Z,93.2
2023-02-05T07:18:16.551Z,93.2
2023-02-05T07:19:17.045Z,93.2
2023-02-05T07:20:16.555Z,93.2
2023-02-05T07:21:17.053Z,93.3
2023-02-05T07:22:16.625Z,93.3
2023-02-05T07:23:17.146Z,93.3
2023-02-05T07:24:16.634Z,93.3
2023-02-05T07:25:17.216Z,93.2
2023-02-05T07:26:16.705Z,93.3
2023-02-05T07:27:17.217Z,93.3
2023-02-05T07:28:16.784Z,93.3
2023-02-05T07:29:17.287Z,93.4
2023-02-05T07:30:16.783Z,93.4
2023-02-05T07:31:17.642Z,93.3
2023-02-05T07:32:16.734Z,93.3
2023-02-05T07:33:17.196Z,93.4
2023-02-05T07:34:16.666Z,93.5
2023-02-05T07:35:17.157Z,93.4
2023-02-05T07:36:16.690Z,93.3
2023-02-05T07:37:17.178Z,93.3
2023-02-05T07:38:16.681Z,93.3
2023-02-05T07:39:17.197Z,93.2
2023-02-05T07:40:16.743Z,93.2
2023-02-05T07:41:17.251Z,93.1
2023-02-05T07:42:17.454Z,93.1
2023-02-05T07:43:16.969Z,93.0
2023-02-05T07:44:16.463Z,92.9
2023-02-05T07:45:16.940Z,92.9
2023-02-05T07:46:17.479Z,92.9
2023-02-05T07:47:16.967Z,92.9
2023-02-05T07:48:16.490Z,92.8
2023-02-05T07:49:17.002Z,92.8
2023-02-05T07:50:16.560Z,92.8
2023-02-05T07:51:17.105Z,92.8
2023-02-05T07:52:16.727Z,92.8
2023-02-05T07:53:17.292Z,92.6
2023-02-05T07:54:16.820Z,92.5
2023-02-05T07:55:17.325Z,92.2
2023-02-05T07:56:16.803Z,92.3
2023-02-05T07:57:17.266Z,92.0
2023-02-05T07:58:16.737Z,92.0
2023-02-05T07:59:17.255Z,92.0
2023-02-05T08:00:16.983Z,91.9
2023-02-05T08:01:16.855Z,92.0
2023-02-05T08:02:17.378Z,92.1
2023-02-05T08:03:16.872Z,92.1
2023-02-05T08:04:17.779Z,92.0
2023-02-05T08:05:17.362Z,92.0
2023-02-05T08:06:16.863Z,91.9
2023-02-05T08:07:17.386Z,91.7
2023-02-05T08:08:16.873Z,91.4
2023-02-05T08:09:17.376Z,91.0
2023-02-05T08:10:16.873Z,91.2
2023-02-05T08:11:17.385Z,91.3
2023-02-05T08:12:17.098Z,91.2
2023-02-05T08:13:16.599Z,91.2
2023-02-05T08:14:17.086Z,90.8
2023-02-05T08:15:16.578Z,90.5
2023-02-05T08:16:17.126Z,90.8
2023-02-05T08:17:16.660Z,91.0
2023-02-05T08:18:17.128Z,90.9
2023-02-05T08:19:16.669Z,90.9
2023-02-05T08:20:17.180Z,90.7
2023-02-05T08:21:16.680Z,90.4
2023-02-05T08:22:16.874Z,90.4
2023-02-05T08:23:17.371Z,90.3
2023-02-05T08:24:16.854Z,89.9
2023-02-05T08:25:17.340Z,89.7
2023-02-05T08:26:16.814Z,89.6
2023-02-05T08:27:17.292Z,89.3
2023-02-05T08:28:16.959Z,88.3
2023-02-05T08:29:16.536Z,87.4
2023-02-05T08:30:17.085Z,87.9
2023-02-05T08:31:16.932Z,88.5
2023-02-05T08:32:16.801Z,88.7
2023-02-05T08:33:17.314Z,88.9
2023-02-05T08:34:18.277Z,89.0
2023-02-05T08:35:16.785Z,89.8
2023-02-05T08:36:17.289Z,89.3
2023-02-05T08:37:16.757Z,89.4
2023-02-05T08:38:17.283Z,89.4
2023-02-05T08:39:16.792Z,89.6
2023-02-05T08:40:17.299Z,89.7
2023-02-05T08:41:16.804Z,89.7
2023-02-05T08:42:17.461Z,89.5
2023-02-05T08:43:16.988Z,89.4
2023-02-05T08:44:16.466Z,89.4
2023-02-05T08:45:16.989Z,89.4
2023-02-05T08:46:16.591Z,89.5
2023-02-05T08:47:17.129Z,89.7
2023-02-05T08:48:16.602Z,90.0
2023-02-05T08:49:17.186Z,90.1
2023-02-05T08:50:16.674Z,90.2
2023-02-05T08:51:17.204Z,90.2
2023-02-05T08:52:16.661Z,90.2
2023-02-05T08:53:17.146Z,90.1
2023-02-05T08:54:16.646Z,89.8
2023-02-05T08:55:17.144Z,89.5
2023-02-05T08:56:19.919Z,89.7
2023-02-05T08:57:16.642Z,89.6
2023-02-05T08:58:17.124Z,89.5
2023-02-05T08:59:16.595Z,89.3
2023-02-05T09:00:17.086Z,89.4
2023-02-05T09:01:16.707Z,89.3
2023-02-05T09:02:17.200Z,89.2
2023-02-05T09:03:16.689Z,89.1
2023-02-05T09:04:17.233Z,88.8
2023-02-05T09:05:16.733Z,88.6
2023-02-05T09:06:17.262Z,88.9
2023-02-05T09:07:16.774Z,88.5
2023-02-05T09:08:17.250Z,89.0
2023-02-05T09:09:16.767Z,89.2
2023-02-05T09:10:17.269Z,89.0
2023-02-05T09:11:16.787Z,88.9
2023-02-05T09:12:17.392Z,88.8
2023-02-05T09:13:16.892Z,89.0
2023-02-05T09:14:17.395Z,88.7
2023-02-05T09:15:16.892Z,88.6
2023-02-05T09:16:17.452Z,88.3
2023-02-05T09:17:16.966Z,88.3
2023-02-05T09:18:16.462Z,88.1
2023-02-05T09:19:16.935Z,87.9
2023-02-05T09:20:17.440Z,87.7
2023-02-05T09:21:16.937Z,88.1
2023-02-05T09:22:16.462Z,87.9
2023-02-05T09:23:16.988Z,88.0
2023-02-05T09:24:16.491Z,88.1
2023-02-05T09:25:17.012Z,88.5
2023-02-05T09:26:16.600Z,88.2
2023-02-05T09:27:17.085Z,88.5
2023-02-05T09:28:16.730Z,88.9
2023-02-05T09:29:17.244Z,88.8
2023-02-05T09:30:16.746Z,88.5
2023-02-05T09:31:17.429Z,88.5
2023-02-05T09:32:16.845Z,88.4
2023-02-05T09:33:17.364Z,88.8
2023-02-05T09:34:16.842Z,88.6
2023-02-05T09:35:17.371Z,88.5
2023-02-05T09:36:16.855Z,88.2
2023-02-05T09:37:17.337Z,88.1
2023-02-05T09:38:16.824Z,88.3
2023-02-05T09:40:02.159Z,88.5
2023-02-05T09:40:21.990Z,88.5
2023-02-05T09:41:16.602Z,88.2
2023-02-05T09:42:16.844Z,88.0
2023-02-05T09:43:17.378Z,88.1
2023-02-05T09:44:16.873Z,88.1
2023-02-05T09:45:17.361Z,88.3
2023-02-05T09:46:17.067Z,88.5
2023-02-05T09:47:16.663Z,88.6
2023-02-05T09:48:17.164Z,88.4
2023-02-05T09:49:16.682Z,88.3
2023-02-05T09:50:17.198Z,88.4
2023-02-05T09:51:16.715Z,88.4
2023-02-05T09:52:17.411Z,88.1
2023-02-05T09:53:16.957Z,88.2
2023-02-05T09:54:17.484Z,88.1
2023-02-05T09:55:16.987Z,88.1
2023-02-05T09:56:16.527Z,88.2
2023-02-05T09:57:17.011Z,88.2
2023-02-05T09:58:16.549Z,88.3
2023-02-05T09:59:17.101Z,88.2
2023-02-05T10:00:16.628Z,88.3
2023-02-05T10:01:17.178Z,88.4
2023-02-05T10:02:17.441Z,88.0
2023-02-05T10:03:16.926Z,88.1
2023-02-05T10:04:17.582Z,87.9
2023-02-05T10:05:17.097Z,87.9
2023-02-05T10:06:16.678Z,87.7
2023-02-05T10:07:17.337Z,87.7
2023-02-05T10:08:16.916Z,87.7
2023-02-05T10:09:17.430Z,87.8
2023-02-05T10:10:16.953Z,87.5
2023-02-05T10:11:17.432Z,87.7
2023-02-05T10:12:17.003Z,88.1
2023-02-05T10:13:16.534Z,88.1
2023-02-05T10:14:17.001Z,88.1
2023-02-05T10:15:16.502Z,88.1
2023-02-05T10:16:17.119Z,87.5
2023-02-05T10:17:16.670Z,87.5
2023-02-05T10:18:17.156Z,87.8
2023-02-05T10:19:16.643Z,88.0
2023-02-05T10:20:17.178Z,88.2
2023-02-05T10:21:16.691Z,87.8
2023-02-05T10:22:17.148Z,87.8
2023-02-05T10:23:16.724Z,88.1
2023-02-05T10:24:17.203Z,88.0
2023-02-05T10:25:16.723Z,87.9
2023-02-05T10:26:17.203Z,87.9
2023-02-05T10:27:16.701Z,87.8
2023-02-05T10:28:17.412Z,87.8
2023-02-05T10:29:16.930Z,87.7
2023-02-05T10:30:17.411Z,87.4
2023-02-05T10:31:17.124Z,87.4
2023-02-05T10:32:16.831Z,87.4
2023-02-05T10:33:17.339Z,86.7
2023-02-05T10:34:16.878Z,86.9
2023-02-05T10:35:17.405Z,87.0
2023-02-05T10:36:16.907Z,86.9
2023-02-05T10:37:17.408Z,86.7
2023-02-05T10:38:16.916Z,86.6
2023-02-05T10:39:17.428Z,86.6
2023-02-05T10:40:16.961Z,86.3
2023-02-05T10:41:17.489Z,86.2
2023-02-05T10:42:17.121Z,86.0
2023-02-05T10:43:16.622Z,86.6
2023-02-05T10:44:17.125Z,86.7
2023-02-05T10:45:19.430Z,86.8
2023-02-05T10:46:17.138Z,86.7
2023-02-05T10:47:16.717Z,86.5
2023-02-05T10:48:17.217Z,86.5
2023-02-05T10:49:16.711Z,86.5
2023-02-05T10:50:17.238Z,86.0
2023-02-05T10:51:16.764Z,86.2
2023-02-05T10:52:17.259Z,86.1
2023-02-05T10:53:16.754Z,85.9
2023-02-05T10:54:17.267Z,86.1
2023-02-05T10:55:16.769Z,85.9
2023-02-05T10:56:17.286Z,85.5
2023-02-05T10:57:16.798Z,85.1
2023-02-05T10:58:17.297Z,85.4
2023-02-05T10:59:16.793Z,84.7
2023-02-05T11:00:17.352Z,84.4
2023-02-05T11:01:17.047Z,84.6
2023-02-05T11:02:17.266Z,85.1
2023-02-05T11:03:16.780Z,85.0
2023-02-05T11:04:17.268Z,85.0
2023-02-05T11:05:16.761Z,84.8
2023-02-05T11:06:17.274Z,84.6
2023-02-05T11:07:16.729Z,84.2
2023-02-05T11:08:17.194Z,84.6
2023-02-05T11:09:16.699Z,84.8
2023-02-05T11:10:17.320Z,84.4
2023-02-05T11:11:16.932Z,84.5
2023-02-05T11:12:17.333Z,84.6
2023-02-05T11:13:16.836Z,84.6
2023-02-05T11:14:17.365Z,84.7
2023-02-05T11:15:16.899Z,84.4
2023-02-05T11:16:17.540Z,84.6
2023-02-05T11:17:17.109Z,84.1
2023-02-05T11:18:16.658Z,84.0
2023-02-05T11:19:17.130Z,83.9
2023-02-05T11:20:16.673Z,83.8
2023-02-05T11:21:17.154Z,83.8
2023-02-05T11:22:16.594Z,84.2
2023-02-05T11:23:17.098Z,84.0
2023-02-05T11:24:16.594Z,83.9
2023-02-05T11:25:17.207Z,83.7
2023-02-05T11:26:16.815Z,83.6
2023-02-05T11:27:17.346Z,82.7
2023-02-05T11:28:17.033Z,83.2
2023-02-05T11:29:16.571Z,83.4
2023-02-05T11:30:21.240Z,83.5
2023-02-05T11:31:17.579Z,83.1
2023-02-05T11:32:16.722Z,82.8
2023-02-05T11:33:17.238Z,82.9
2023-02-05T11:34:16.728Z,83.0
2023-02-05T11:35:17.208Z,82.8
2023-02-05T11:36:16.728Z,82.6
2023-02-05T11:37:17.288Z,82.6
2023-02-05T11:38:16.812Z,82.6
2023-02-05T11:39:17.339Z,82.8
2023-02-05T11:40:17.016Z,82.7
2023-02-05T11:41:16.604Z,82.7
2023-02-05T11:42:17.109Z,82.5
2023-02-05T11:43:16.647Z,82.5
2023-02-05T11:44:17.146Z,82.4
2023-02-05T11:45:16.626Z,82.4
2023-02-05T11:46:17.150Z,82.7
2023-02-05T11:47:16.649Z,82.6
2023-02-05T11:48:17.140Z,82.6
2023-02-05T11:49:16.605Z,82.4
2023-02-05T11:50:19.036Z,82.3
2023-02-05T11:51:16.626Z,82.4
2023-02-05T11:52:16.776Z,82.5
2023-02-05T11:53:17.280Z,82.7
2023-02-05T11:54:16.776Z,82.7
2023-02-05T11:55:17.271Z,81.8
2023-02-05T11:56:16.766Z,82.5
2023-02-05T11:57:17.290Z,82.2
2023-02-05T11:58:25.077Z,82.1
2023-02-05T11:59:17.118Z,82.1
2023-02-05T12:00:16.727Z,82.3
2023-02-05T12:01:17.251Z,82.4
2023-02-05T12:02:16.573Z,82.4
2023-02-05T12:03:17.227Z,82.2
2023-02-05T12:04:16.781Z,82.2
2023-02-05T12:05:17.266Z,82.2
2023-02-05T12:06:16.804Z,82.3
2023-02-05T12:07:17.301Z,82.4
2023-02-05T12:08:16.801Z,82.4
2023-02-05T12:09:17.283Z,82.0
2023-02-05T12:10:16.800Z,81.5
2023-02-05T12:11:17.282Z,81.5
2023-02-05T12:12:16.937Z,81.8
2023-02-05T12:13:17.427Z,82.0
2023-02-05T12:14:16.885Z,81.8
2023-02-05T12:15:17.385Z,82.0
2023-02-05T12:16:16.926Z,81.8
2023-02-05T12:17:17.482Z,82.1
2023-02-05T12:18:16.973Z,82.0
2023-02-05T12:19:16.456Z,82.0
2023-02-05T12:20:16.971Z,81.8
2023-02-05T12:21:16.492Z,81.5
2023-02-05T12:22:16.914Z,81.4
2023-02-05T12:23:17.439Z,81.5
2023-02-05T12:24:16.930Z,81.0
2023-02-05T12:25:17.414Z,81.2
2023-02-05T12:26:16.926Z,81.1
2023-02-05T12:27:17.396Z,80.8
2023-02-05T12:28:17.060Z,80.9
2023-02-05T12:29:16.536Z,81.1
2023-02-05T12:30:17.086Z,80.8
2023-02-05T12:31:16.789Z,81.0
2023-02-05T12:32:17.150Z,80.9
2023-02-05T12:33:16.640Z,80.9
2023-02-05T12:34:17.164Z,80.6
2023-02-05T12:35:16.698Z,80.6
2023-02-05T12:36:17.176Z,80.5
2023-02-05T12:37:16.700Z,79.8
2023-02-05T12:38:32.274Z,80.5
2023-02-05T12:39:16.981Z,80.3
2023-02-05T12:40:16.530Z,80.1
2023-02-05T12:41:17.021Z,80.4
2023-02-05T12:42:17.290Z,80.4
2023-02-05T12:43:16.797Z,80.5
2023-02-05T12:44:17.353Z,80.5
2023-02-05T12:45:16.893Z,80.5
2023-02-05T12:46:17.531Z,80.3
2023-02-05T12:47:17.047Z,80.2
2023-02-05T12:48:16.591Z,80.2
2023-02-05T12:49:17.076Z,80.5
2023-02-05T12:50:16.575Z,80.0
2023-02-05T12:51:17.063Z,79.8
2023-02-05T12:52:16.547Z,79.7
2023-02-05T12:53:17.041Z,79.7
2023-02-05T12:54:16.537Z,79.9
2023-02-05T12:55:17.031Z,80.2
2023-02-05T12:56:16.510Z,79.9
2023-02-05T12:57:17.032Z,79.4
2023-02-05T12:58:16.538Z,79.3
2023-02-05T12:59:17.026Z,79.5
2023-02-05T13:00:16.508Z,79.6
2023-02-05T13:01:17.210Z,79.6
2023-02-05T13:02:16.692Z,79.6
2023-02-05T13:03:17.212Z,79.6
2023-02-05T13:04:16.743Z,79.7
2023-02-05T13:05:17.256Z,79.7
2023-02-05T13:06:16.858Z,79.7
2023-02-05T13:07:17.352Z,79.2
2023-02-05T13:08:16.873Z,79.2
2023-02-05T13:09:17.409Z,79.2
2023-02-05T13:10:16.900Z,79.5
2023-02-05T13:11:17.414Z,79.2
2023-02-05T13:12:17.048Z,79.4
2023-02-05T13:13:16.552Z,79.5
2023-02-05T13:14:17.034Z,79.3
2023-02-05T13:15:16.535Z,79.4
2023-02-05T13:16:17.168Z,79.3
2023-02-05T13:17:16.680Z,79.4
2023-02-05T13:18:17.149Z,79.6